AEE284 LGAV-LGKR
Flight info
| Callsign | AEE284 |
|---|---|
| Flight time | 0h 50m |
| Altitude | 32000 |
| Route | KOR UL53 PARNA |
| Aircraft | A320/M-SDE3FGHIRWY/LB1 |
Departure
| Time | 2026-05-05 14:29 |
|---|---|
| Airport | Athens Eleftherios Venizelos International Airport (LGAV) |
Arrival
| Time | 2026-05-05 15:20 |
|---|---|
| Airport | Corfu Ioannis Kapodistrias International Airport (LGKR) |
| Time | Latitude | Longitude | Altitude | Speed | Heading |
|---|---|---|---|---|---|
| 2026-05-05 14:03 | 37.93872 | 23.95081 | 301 ft | 0 kts | 307° |
| 2026-05-05 14:19 | 37.93870 | 23.95084 | 303 ft | 2 kts | 307° |
| 2026-05-05 14:19 | 37.93855 | 23.95110 | 304 ft | 4 kts | 307° |
| 2026-05-05 14:19 | 37.93838 | 23.95137 | 300 ft | 4 kts | 313° |
| 2026-05-05 14:19 | 37.93818 | 23.95154 | 300 ft | 4 kts | 358° |
| 2026-05-05 14:20 | 37.93796 | 23.95147 | 300 ft | 1 kts | 37° |
| 2026-05-05 14:23 | 37.93810 | 23.95161 | 302 ft | 5 kts | 37° |
| 2026-05-05 14:23 | 37.93852 | 23.95210 | 300 ft | 10 kts | 55° |
| 2026-05-05 14:23 | 37.93884 | 23.95306 | 300 ft | 13 kts | 70° |
| 2026-05-05 14:23 | 37.93856 | 23.95412 | 300 ft | 14 kts | 124° |
| 2026-05-05 14:24 | 37.93905 | 23.95524 | 300 ft | 18 kts | 36° |
| 2026-05-05 14:24 | 37.94012 | 23.95626 | 297 ft | 21 kts | 37° |
| 2026-05-05 14:24 | 37.94139 | 23.95746 | 300 ft | 26 kts | 37° |
| 2026-05-05 14:24 | 37.94290 | 23.95889 | 299 ft | 30 kts | 37° |
| 2026-05-05 14:25 | 37.94460 | 23.96052 | 299 ft | 31 kts | 37° |
| 2026-05-05 14:25 | 37.94626 | 23.96209 | 301 ft | 30 kts | 37° |
| 2026-05-05 14:25 | 37.94798 | 23.96373 | 302 ft | 28 kts | 36° |
| 2026-05-05 14:25 | 37.94959 | 23.96524 | 302 ft | 30 kts | 37° |
| 2026-05-05 14:26 | 37.95117 | 23.96673 | 302 ft | 27 kts | 37° |
| 2026-05-05 14:26 | 37.95255 | 23.96803 | 303 ft | 21 kts | 37° |
| 2026-05-05 14:26 | 37.95299 | 23.96888 | 305 ft | 10 kts | 97° |
| 2026-05-05 14:26 | 37.95271 | 23.96943 | 306 ft | 3 kts | 129° |
| 2026-05-05 14:27 | 37.95253 | 23.96972 | 308 ft | 7 kts | 128° |
| 2026-05-05 14:27 | 37.95224 | 23.97014 | 311 ft | 7 kts | 142° |
| 2026-05-05 14:27 | 37.95168 | 23.97001 | 310 ft | 1 kts | 217° |
| 2026-05-05 14:28 | 37.95166 | 23.96999 | 310 ft | 2 kts | 217° |
| 2026-05-05 14:29 | 37.95045 | 23.96884 | 308 ft | 58 kts | 217° |
| 2026-05-05 14:29 | 37.94528 | 23.96395 | 294 ft | 124 kts | 217° |
| 2026-05-05 14:29 | 37.93711 | 23.95616 | 399 ft | 163 kts | 216° |
| 2026-05-05 14:29 | 37.92734 | 23.94841 | 1013 ft | 170 kts | 207° |
| 2026-05-05 14:30 | 37.91690 | 23.94155 | 1777 ft | 168 kts | 209° |
| 2026-05-05 14:30 | 37.90644 | 23.93441 | 2377 ft | 178 kts | 211° |
| 2026-05-05 14:30 | 37.89482 | 23.92638 | 2733 ft | 203 kts | 211° |
| 2026-05-05 14:30 | 37.88163 | 23.91727 | 3194 ft | 228 kts | 210° |
| 2026-05-05 14:31 | 37.86703 | 23.90720 | 3810 ft | 247 kts | 210° |
| 2026-05-05 14:31 | 37.85168 | 23.89665 | 4702 ft | 255 kts | 210° |
| 2026-05-05 14:31 | 37.83593 | 23.88586 | 5646 ft | 260 kts | 211° |
| 2026-05-05 14:31 | 37.81984 | 23.87485 | 6603 ft | 266 kts | 211° |
| 2026-05-05 14:32 | 37.80343 | 23.86364 | 7526 ft | 270 kts | 211° |
| 2026-05-05 14:32 | 37.78698 | 23.85241 | 8461 ft | 274 kts | 211° |
| 2026-05-05 14:32 | 37.77011 | 23.84089 | 9403 ft | 278 kts | 211° |
| 2026-05-05 14:32 | 37.75296 | 23.82921 | 10288 ft | 282 kts | 211° |
| 2026-05-05 14:33 | 37.73549 | 23.81741 | 11099 ft | 287 kts | 210° |
| 2026-05-05 14:33 | 37.71770 | 23.80553 | 11902 ft | 292 kts | 210° |
| 2026-05-05 14:33 | 37.69955 | 23.79347 | 12700 ft | 297 kts | 210° |
| 2026-05-05 14:33 | 37.68111 | 23.78121 | 13496 ft | 302 kts | 210° |
| 2026-05-05 14:34 | 37.66233 | 23.76872 | 14231 ft | 307 kts | 210° |
| 2026-05-05 14:34 | 37.64325 | 23.75605 | 14938 ft | 312 kts | 211° |
| 2026-05-05 14:34 | 37.62391 | 23.74319 | 15640 ft | 316 kts | 211° |
| 2026-05-05 14:34 | 37.60437 | 23.73017 | 16359 ft | 319 kts | 212° |
| 2026-05-05 14:35 | 37.58464 | 23.71703 | 17081 ft | 323 kts | 212° |
| 2026-05-05 14:35 | 37.56555 | 23.70181 | 17563 ft | 330 kts | 227° |
| 2026-05-05 14:35 | 37.55168 | 23.67847 | 17713 ft | 339 kts | 251° |
| 2026-05-05 14:35 | 37.54536 | 23.64958 | 17905 ft | 349 kts | 264° |
| 2026-05-05 14:36 | 37.54086 | 23.61917 | 18437 ft | 356 kts | 264° |
| 2026-05-05 14:36 | 37.53621 | 23.58838 | 19033 ft | 359 kts | 264° |
| 2026-05-05 14:36 | 37.53142 | 23.55731 | 19661 ft | 362 kts | 264° |
| 2026-05-05 14:36 | 37.52658 | 23.52653 | 20300 ft | 364 kts | 264° |
| 2026-05-05 14:37 | 37.52162 | 23.49512 | 20935 ft | 367 kts | 264° |
| 2026-05-05 14:37 | 37.51661 | 23.46348 | 21523 ft | 370 kts | 264° |
| 2026-05-05 14:37 | 37.51156 | 23.43160 | 22124 ft | 372 kts | 264° |
| 2026-05-05 14:37 | 37.50649 | 23.39955 | 22685 ft | 374 kts | 264° |
| 2026-05-05 14:38 | 37.50139 | 23.36732 | 23271 ft | 377 kts | 264° |
| 2026-05-05 14:38 | 37.49625 | 23.33486 | 23822 ft | 379 kts | 265° |
| 2026-05-05 14:38 | 37.49128 | 23.30218 | 24297 ft | 380 kts | 268° |
| 2026-05-05 14:38 | 37.49086 | 23.26937 | 24749 ft | 372 kts | 283° |
| 2026-05-05 14:39 | 37.49732 | 23.23816 | 25222 ft | 366 kts | 297° |
| 2026-05-05 14:39 | 37.51001 | 23.21070 | 25711 ft | 362 kts | 311° |
| 2026-05-05 14:39 | 37.52792 | 23.18857 | 26204 ft | 362 kts | 324° |
| 2026-05-05 14:39 | 37.54967 | 23.17267 | 26692 ft | 363 kts | 333° |
| 2026-05-05 14:40 | 37.57219 | 23.15875 | 27186 ft | 364 kts | 333° |
| 2026-05-05 14:40 | 37.59501 | 23.14465 | 27673 ft | 366 kts | 333° |
| 2026-05-05 14:40 | 37.61790 | 23.13049 | 28180 ft | 368 kts | 333° |
| 2026-05-05 14:40 | 37.64091 | 23.11623 | 28671 ft | 369 kts | 333° |
| 2026-05-05 14:41 | 37.66399 | 23.10191 | 29136 ft | 371 kts | 332° |
| 2026-05-05 14:41 | 37.68723 | 23.08750 | 29621 ft | 372 kts | 332° |
| 2026-05-05 14:41 | 37.71055 | 23.07304 | 30098 ft | 375 kts | 332° |
| 2026-05-05 14:41 | 37.73405 | 23.05845 | 30471 ft | 378 kts | 332° |
| 2026-05-05 14:42 | 37.75772 | 23.04376 | 30832 ft | 381 kts | 332° |
| 2026-05-05 14:42 | 37.78154 | 23.02894 | 31216 ft | 383 kts | 332° |
| 2026-05-05 14:42 | 37.80553 | 23.01396 | 31579 ft | 385 kts | 332° |
| 2026-05-05 14:42 | 37.82964 | 22.99890 | 31952 ft | 387 kts | 332° |
| 2026-05-05 14:43 | 37.87668 | 22.96952 | 32053 ft | 365 kts | 332° |
| 2026-05-05 14:43 | 37.92035 | 22.93977 | 32056 ft | 352 kts | 323° |
| 2026-05-05 14:44 | 37.94858 | 22.90305 | 32054 ft | 352 kts | 307° |
| 2026-05-05 14:44 | 37.97657 | 22.85199 | 32054 ft | 352 kts | 307° |
| 2026-05-05 14:45 | 38.00463 | 22.80119 | 32060 ft | 351 kts | 307° |
| 2026-05-05 14:45 | 38.03265 | 22.75037 | 32046 ft | 351 kts | 307° |
| 2026-05-05 14:46 | 38.06062 | 22.69949 | 32063 ft | 351 kts | 307° |
| 2026-05-05 14:46 | 38.08853 | 22.64858 | 32071 ft | 351 kts | 307° |
| 2026-05-05 14:47 | 38.11626 | 22.59796 | 32078 ft | 351 kts | 307° |
| 2026-05-05 14:47 | 38.14430 | 22.54659 | 32086 ft | 351 kts | 307° |
| 2026-05-05 14:48 | 38.17190 | 22.49590 | 32085 ft | 351 kts | 307° |
| 2026-05-05 14:48 | 38.19969 | 22.44482 | 32076 ft | 351 kts | 308° |
| 2026-05-05 14:49 | 38.22747 | 22.39377 | 32092 ft | 350 kts | 308° |
| 2026-05-05 14:49 | 38.25516 | 22.34284 | 32091 ft | 350 kts | 308° |
| 2026-05-05 14:50 | 38.28277 | 22.29187 | 32098 ft | 350 kts | 308° |
| 2026-05-05 14:50 | 38.31035 | 22.24086 | 32109 ft | 349 kts | 307° |
| 2026-05-05 14:51 | 38.33789 | 22.18996 | 32109 ft | 349 kts | 307° |
| 2026-05-05 14:51 | 38.36538 | 22.13900 | 32113 ft | 349 kts | 308° |
| 2026-05-05 14:52 | 38.39281 | 22.08800 | 32101 ft | 348 kts | 307° |
| 2026-05-05 14:52 | 38.42018 | 22.03718 | 32104 ft | 347 kts | 308° |
| 2026-05-05 14:53 | 38.44730 | 21.98677 | 32103 ft | 347 kts | 308° |
| 2026-05-05 14:53 | 38.47456 | 21.93596 | 32107 ft | 347 kts | 307° |
| 2026-05-05 14:54 | 38.50176 | 21.88515 | 32110 ft | 346 kts | 307° |
| 2026-05-05 14:54 | 38.52889 | 21.83438 | 32111 ft | 346 kts | 307° |
| 2026-05-05 14:55 | 38.55593 | 21.78358 | 32100 ft | 346 kts | 307° |
| 2026-05-05 14:55 | 38.58302 | 21.73272 | 32096 ft | 346 kts | 307° |
| 2026-05-05 14:56 | 38.61011 | 21.68171 | 32102 ft | 347 kts | 307° |
| 2026-05-05 14:56 | 38.63704 | 21.63101 | 32106 ft | 346 kts | 307° |
| 2026-05-05 14:57 | 38.66435 | 21.57952 | 31586 ft | 354 kts | 307° |
| 2026-05-05 14:57 | 38.67809 | 21.55349 | 31177 ft | 351 kts | 306° |
| 2026-05-05 14:57 | 38.69164 | 21.52780 | 30811 ft | 346 kts | 306° |
| 2026-05-05 14:58 | 38.70509 | 21.50240 | 30394 ft | 343 kts | 306° |
| 2026-05-05 14:58 | 38.71849 | 21.47708 | 29931 ft | 341 kts | 306° |
| 2026-05-05 14:58 | 38.73174 | 21.45200 | 29502 ft | 338 kts | 306° |
| 2026-05-05 14:58 | 38.74481 | 21.42718 | 29103 ft | 334 kts | 306° |
| 2026-05-05 14:59 | 38.75774 | 21.40265 | 28707 ft | 330 kts | 306° |
| 2026-05-05 14:59 | 38.77053 | 21.37840 | 28321 ft | 327 kts | 306° |
| 2026-05-05 14:59 | 38.78305 | 21.35469 | 27952 ft | 324 kts | 306° |
| 2026-05-05 14:59 | 38.79564 | 21.33085 | 27568 ft | 321 kts | 306° |
| 2026-05-05 15:00 | 38.80804 | 21.30726 | 27185 ft | 318 kts | 306° |
| 2026-05-05 15:00 | 38.81620 | 21.29170 | 26925 ft | 316 kts | 306° |
| 2026-05-05 15:00 | 38.83248 | 21.26060 | 26414 ft | 312 kts | 306° |
| 2026-05-05 15:00 | 38.84457 | 21.23755 | 26021 ft | 311 kts | 306° |
| 2026-05-05 15:01 | 38.85658 | 21.21462 | 25635 ft | 309 kts | 306° |
| 2026-05-05 15:01 | 38.86854 | 21.19172 | 25222 ft | 308 kts | 306° |
| 2026-05-05 15:01 | 38.88047 | 21.16887 | 24822 ft | 308 kts | 306° |
| 2026-05-05 15:01 | 38.89239 | 21.14603 | 24414 ft | 308 kts | 306° |
| 2026-05-05 15:02 | 38.90435 | 21.12323 | 24005 ft | 307 kts | 305° |
| 2026-05-05 15:02 | 38.91611 | 21.10074 | 23584 ft | 307 kts | 305° |
| 2026-05-05 15:02 | 38.92815 | 21.07768 | 23133 ft | 306 kts | 305° |
| 2026-05-05 15:02 | 38.93980 | 21.05531 | 22733 ft | 304 kts | 305° |
| 2026-05-05 15:03 | 38.95169 | 21.03247 | 22322 ft | 303 kts | 305° |
| 2026-05-05 15:03 | 38.96320 | 21.01035 | 21930 ft | 301 kts | 305° |
| 2026-05-05 15:03 | 38.97482 | 20.98799 | 21551 ft | 300 kts | 305° |
| 2026-05-05 15:03 | 38.98644 | 20.96566 | 21131 ft | 300 kts | 305° |
| 2026-05-05 15:04 | 38.99801 | 20.94337 | 20725 ft | 300 kts | 305° |
| 2026-05-05 15:04 | 39.00956 | 20.92105 | 20336 ft | 299 kts | 305° |
| 2026-05-05 15:04 | 39.02109 | 20.89878 | 19941 ft | 299 kts | 305° |
| 2026-05-05 15:04 | 39.03263 | 20.87650 | 19547 ft | 299 kts | 305° |
| 2026-05-05 15:05 | 39.05575 | 20.83184 | 18757 ft | 300 kts | 305° |
| 2026-05-05 15:05 | 39.06735 | 20.80943 | 18352 ft | 301 kts | 305° |
| 2026-05-05 15:05 | 39.07892 | 20.78700 | 17913 ft | 301 kts | 304° |
| 2026-05-05 15:06 | 39.09049 | 20.76462 | 17523 ft | 300 kts | 304° |
| 2026-05-05 15:06 | 39.10201 | 20.74235 | 17139 ft | 299 kts | 305° |
| 2026-05-05 15:06 | 39.11349 | 20.72012 | 16752 ft | 298 kts | 305° |
| 2026-05-05 15:06 | 39.12495 | 20.69790 | 16366 ft | 297 kts | 305° |
| 2026-05-05 15:07 | 39.13623 | 20.67600 | 15988 ft | 297 kts | 305° |
| 2026-05-05 15:07 | 39.14768 | 20.65382 | 15606 ft | 297 kts | 305° |
| 2026-05-05 15:07 | 39.15913 | 20.63157 | 15226 ft | 297 kts | 305° |
| 2026-05-05 15:07 | 39.17057 | 20.60929 | 14834 ft | 299 kts | 305° |
| 2026-05-05 15:08 | 39.18204 | 20.58694 | 14457 ft | 299 kts | 305° |
| 2026-05-05 15:08 | 39.19351 | 20.56458 | 14074 ft | 299 kts | 305° |
| 2026-05-05 15:08 | 39.20499 | 20.54219 | 13672 ft | 300 kts | 305° |
| 2026-05-05 15:08 | 39.21648 | 20.51975 | 13279 ft | 299 kts | 305° |
| 2026-05-05 15:09 | 39.22792 | 20.49738 | 12903 ft | 298 kts | 305° |
| 2026-05-05 15:09 | 39.23931 | 20.47513 | 12525 ft | 296 kts | 305° |
| 2026-05-05 15:09 | 39.25064 | 20.45300 | 12151 ft | 295 kts | 304° |
| 2026-05-05 15:09 | 39.26193 | 20.43092 | 11774 ft | 294 kts | 304° |
| 2026-05-05 15:10 | 39.27322 | 20.40889 | 11407 ft | 293 kts | 304° |
| 2026-05-05 15:10 | 39.28447 | 20.38690 | 11040 ft | 293 kts | 304° |
| 2026-05-05 15:10 | 39.29551 | 20.36526 | 10662 ft | 292 kts | 304° |
| 2026-05-05 15:10 | 39.30662 | 20.34346 | 10304 ft | 290 kts | 304° |
| 2026-05-05 15:11 | 39.31773 | 20.32165 | 9928 ft | 290 kts | 305° |
| 2026-05-05 15:11 | 39.32882 | 20.29990 | 9554 ft | 289 kts | 304° |
| 2026-05-05 15:11 | 39.33994 | 20.27799 | 9179 ft | 288 kts | 304° |
| 2026-05-05 15:11 | 39.35075 | 20.25665 | 8817 ft | 286 kts | 304° |
| 2026-05-05 15:12 | 39.36074 | 20.23446 | 8426 ft | 287 kts | 289° |
| 2026-05-05 15:12 | 39.36213 | 20.20907 | 8029 ft | 289 kts | 256° |
| 2026-05-05 15:12 | 39.35281 | 20.18646 | 7667 ft | 289 kts | 229° |
| 2026-05-05 15:12 | 39.33941 | 20.16740 | 7369 ft | 285 kts | 231° |
| 2026-05-05 15:13 | 39.32760 | 20.14681 | 7060 ft | 283 kts | 237° |
| 2026-05-05 15:13 | 39.31734 | 20.12528 | 6731 ft | 281 kts | 241° |
| 2026-05-05 15:13 | 39.30823 | 20.10304 | 6394 ft | 279 kts | 244° |
| 2026-05-05 15:13 | 39.30019 | 20.08035 | 6065 ft | 277 kts | 248° |
| 2026-05-05 15:14 | 39.29687 | 20.05625 | 5736 ft | 273 kts | 276° |
| 2026-05-05 15:14 | 39.30343 | 20.03362 | 5413 ft | 271 kts | 306° |
| 2026-05-05 15:14 | 39.31772 | 20.01790 | 4948 ft | 273 kts | 327° |
| 2026-05-05 15:14 | 39.33345 | 20.00505 | 4623 ft | 259 kts | 326° |
| 2026-05-05 15:15 | 39.34820 | 19.99296 | 4404 ft | 244 kts | 327° |
| 2026-05-05 15:15 | 39.36284 | 19.98372 | 4249 ft | 226 kts | 343° |
| 2026-05-05 15:15 | 39.37777 | 19.98081 | 4158 ft | 210 kts | 357° |
| 2026-05-05 15:15 | 39.39203 | 19.98006 | 4057 ft | 201 kts | 356° |
| 2026-05-05 15:16 | 39.40592 | 19.97928 | 3970 ft | 199 kts | 356° |
| 2026-05-05 15:16 | 39.41972 | 19.97844 | 3888 ft | 198 kts | 353° |
| 2026-05-05 15:16 | 39.43296 | 19.97452 | 3676 ft | 199 kts | 343° |
| 2026-05-05 15:16 | 39.44642 | 19.96942 | 3344 ft | 203 kts | 342° |
| 2026-05-05 15:17 | 39.46009 | 19.96427 | 3024 ft | 206 kts | 343° |
| 2026-05-05 15:17 | 39.47396 | 19.95906 | 2711 ft | 208 kts | 343° |
| 2026-05-05 15:17 | 39.48793 | 19.95381 | 2398 ft | 210 kts | 342° |
| 2026-05-05 15:17 | 39.50191 | 19.94858 | 2082 ft | 206 kts | 341° |
| 2026-05-05 15:18 | 39.51520 | 19.94337 | 1834 ft | 190 kts | 338° |
| 2026-05-05 15:18 | 39.52696 | 19.93727 | 1575 ft | 176 kts | 334° |
| 2026-05-05 15:18 | 39.53797 | 19.93175 | 1255 ft | 163 kts | 340° |
| 2026-05-05 15:18 | 39.54838 | 19.92798 | 994 ft | 149 kts | 342° |
| 2026-05-05 15:19 | 39.55802 | 19.92437 | 749 ft | 143 kts | 340° |
| 2026-05-05 15:19 | 39.56756 | 19.92132 | 573 ft | 142 kts | 346° |
| 2026-05-05 15:19 | 39.57725 | 19.91862 | 367 ft | 141 kts | 347° |
| 2026-05-05 15:19 | 39.58689 | 19.91618 | 154 ft | 141 kts | 344° |
| 2026-05-05 15:20 | 39.59646 | 19.91361 | 15 ft | 134 kts | 346° |
| 2026-05-05 15:20 | 39.60392 | 19.91162 | 6 ft | 71 kts | 349° |
| 2026-05-05 15:20 | 39.60703 | 19.91081 | 5 ft | 40 kts | 348° |
| 2026-05-05 15:20 | 39.60944 | 19.91019 | 5 ft | 27 kts | 348° |
| 2026-05-05 15:21 | 39.61036 | 19.91044 | 6 ft | 11 kts | 44° |
| 2026-05-05 15:21 | 39.61051 | 19.91122 | 8 ft | 9 kts | 126° |
| 2026-05-05 15:21 | 39.60979 | 19.91146 | 8 ft | 13 kts | 170° |
| 2026-05-05 15:21 | 39.60880 | 19.91168 | 8 ft | 17 kts | 169° |
| 2026-05-05 15:22 | 39.60765 | 19.91198 | 7 ft | 15 kts | 168° |
| 2026-05-05 15:22 | 39.60687 | 19.91226 | 8 ft | 8 kts | 146° |
| 2026-05-05 15:22 | 39.60687 | 19.91297 | 8 ft | 9 kts | 79° |
| 2026-05-05 15:22 | 39.60696 | 19.91363 | 8 ft | 0 kts | 79° |